PILOTS ONLINE: 271    ATC ONLINE: 40

KTRM

Jacqueline Cochran Regional Airport

Location

City Palm Springs
Country  United States
Latitude 33° 37' 36" N
Longitude 116° 9' 36" W
Elevation -115 ft
Type Medium Airport

Map

Weather

METAR
2014/09/16 01:52
KTRM 160152Z AUTO 12003KT 10SM CLR 37/16 A2963 RMK AO2 SLP038 T03670161 TSNO
TAF
2014/09/15 18:21
TAF KTRM 151720Z 1518/1618 VRB05KT P6SM SKC 
     FM152100 14011KT P6SM SCT100 
     FM160200 VRB05KT P6SM SKC

Runways

12/30 4995 ft / 100 ft
17/35 8500 ft / 150 ft

Outbound flights

Callsign Flying to Pilot ATD/STD ETA Aircraft

Inbound flights

Callsign Flying from Pilot ATD ETA Aircraft